createdAt,value
2018-04-10T00:07:42.211Z,99.90
2018-04-10T00:10:30.028Z,99.90
2018-04-10T00:13:18.559Z,99.90
2018-04-10T00:16:09.033Z,99.90
2018-04-10T00:24:40.185Z,99.90
2018-04-10T00:33:27.165Z,99.90
2018-04-10T00:36:08.976Z,99.90
2018-04-10T00:38:49.830Z,99.90
2018-04-10T00:53:29.999Z,99.90
2018-04-10T00:56:17.632Z,99.90
2018-04-10T00:58:59.240Z,99.90
2018-04-10T01:01:40.771Z,99.90
2018-04-10T01:04:22.255Z,99.90
2018-04-10T01:07:04.285Z,99.90
2018-04-10T01:09:46.260Z,99.90
2018-04-10T01:12:27.668Z,99.90
2018-04-10T01:15:15.160Z,99.90
2018-04-10T01:17:56.491Z,99.90
2018-04-10T01:20:37.085Z,99.90
2018-04-10T01:23:21.694Z,99.90
2018-04-10T01:26:09.944Z,99.90
2018-04-10T01:29:00.966Z,99.90
2018-04-10T01:34:44.902Z,99.90
2018-04-10T01:37:27.430Z,99.90
2018-04-10T01:40:08.877Z,99.90
2018-04-10T01:42:53.647Z,99.90
2018-04-10T01:45:35.248Z,99.90
2018-04-10T01:48:17.356Z,99.90
2018-04-10T01:50:59.958Z,99.90
2018-04-10T01:53:41.529Z,99.90
2018-04-10T01:56:27.204Z,99.90
2018-04-10T01:59:09.185Z,99.90
2018-04-10T02:01:51.386Z,99.90
2018-04-10T02:04:35.125Z,99.90
2018-04-10T02:07:16.658Z,99.90
2018-04-10T02:13:00.708Z,99.90
2018-04-10T02:15:47.171Z,99.90
2018-04-10T02:18:33.312Z,99.90
2018-04-10T02:21:14.905Z,99.90
2018-04-10T02:23:56.636Z,99.90
2018-04-10T02:26:38.069Z,99.90
2018-04-10T02:29:18.349Z,99.90
2018-04-10T02:32:00.973Z,99.90
2018-04-10T02:53:00.313Z,99.90
2018-04-10T02:55:51.093Z,99.90
2018-04-10T03:01:38.491Z,99.90
2018-04-10T03:07:29.615Z,99.90
2018-04-10T03:19:23.805Z,99.90
2018-04-10T03:22:11.510Z,99.90
2018-04-10T03:27:52.228Z,99.90
2018-04-10T03:30:34.392Z,99.90
2018-04-10T03:33:17.639Z,99.90
2018-04-10T03:35:59.663Z,99.90
2018-04-10T03:38:52.031Z,99.90
2018-04-10T03:41:39.492Z,99.90
2018-04-10T03:47:20.127Z,99.90
2018-04-10T03:50:02.541Z,99.90
2018-04-10T03:52:45.622Z,99.90
2018-04-10T03:55:37.802Z,99.90
2018-04-10T03:58:20.706Z,99.90
2018-04-10T04:01:03.805Z,99.90
2018-04-10T04:03:45.610Z,99.90
2018-04-10T04:06:27.136Z,99.90
2018-04-10T04:09:13.044Z,99.90
2018-04-10T04:11:57.223Z,99.90
2018-04-10T04:14:42.574Z,99.90
2018-04-10T04:17:26.173Z,99.90
2018-04-10T04:20:09.884Z,99.90
2018-04-10T04:22:54.369Z,99.90
2018-04-10T04:25:35.664Z,99.90
2018-04-10T04:28:16.184Z,99.90
2018-04-10T04:30:58.182Z,99.90
2018-04-10T04:33:39.960Z,99.90
2018-04-10T04:36:21.353Z,99.90
2018-04-10T04:39:02.806Z,99.90
2018-04-10T04:41:44.078Z,99.90
2018-04-10T04:44:24.931Z,99.90
2018-04-10T04:47:06.636Z,99.90
2018-04-10T04:49:48.030Z,99.90
2018-04-10T04:52:29.142Z,99.90
2018-04-10T04:55:15.897Z,99.90
2018-04-10T04:58:20.980Z,99.90
2018-04-10T05:01:03.125Z,99.90
2018-04-10T05:06:47.827Z,99.90
2018-04-10T05:09:29.055Z,99.90
2018-04-10T05:21:04.529Z,99.90
2018-04-10T06:35:56.915Z,97.70
2018-04-10T06:38:53.390Z,97.10
2018-04-10T06:47:59.231Z,93.30
2018-04-10T06:50:59.225Z,92.40
2018-04-10T06:56:41.121Z,90.10
2018-04-10T06:59:11.605Z,89.40
2018-04-10T07:01:40.332Z,84.60
2018-04-10T07:04:11.953Z,82.40
2018-04-10T07:06:41.693Z,81.40
2018-04-10T07:09:10.641Z,79.20
2018-04-10T07:11:39.116Z,77.10
2018-04-10T07:14:07.237Z,74.80
2018-04-10T07:16:42.749Z,72.00
2018-04-10T07:19:10.819Z,71.10
2018-04-10T07:24:15.017Z,66.60
2018-04-10T07:26:42.892Z,66.00
2018-04-10T07:29:11.420Z,65.50
2018-04-10T07:31:39.345Z,64.40
2018-04-10T07:34:08.097Z,63.70
2018-04-10T07:36:37.864Z,63.40
2018-04-10T07:39:06.443Z,62.10
2018-04-10T07:41:35.842Z,60.40
2018-04-10T07:44:05.664Z,59.60
2018-04-10T07:46:34.286Z,59.60
2018-04-10T07:49:02.380Z,60.00
2018-04-10T07:51:32.907Z,60.30
2018-04-10T07:54:02.547Z,60.10
2018-04-10T07:56:30.960Z,60.00
2018-04-10T07:59:00.063Z,59.70
2018-04-10T08:01:28.568Z,59.80
2018-04-10T08:03:58.103Z,59.00
2018-04-10T08:06:26.325Z,59.00
2018-04-10T08:08:56.012Z,58.70
2018-04-10T08:11:24.346Z,58.70
2018-04-10T08:13:53.272Z,56.40
2018-04-10T08:16:22.050Z,56.40
2018-04-10T08:18:50.636Z,55.20
2018-04-10T08:21:19.086Z,55.20
2018-04-10T08:23:47.203Z,54.90
2018-04-10T08:26:15.653Z,55.30
2018-04-10T08:28:44.369Z,54.50
2018-04-10T08:31:13.032Z,54.50
2018-04-10T08:33:43.396Z,55.00
2018-04-10T08:36:12.126Z,54.30
2018-04-10T08:38:40.933Z,54.50
2018-04-10T08:41:09.879Z,54.00
2018-04-10T08:43:39.496Z,53.90
2018-04-10T08:46:07.285Z,53.80
2018-04-10T08:48:36.053Z,52.40
2018-04-10T08:51:04.807Z,52.30
2018-04-10T08:53:32.492Z,51.70
2018-04-10T08:56:00.802Z,52.00
2018-04-10T08:58:28.476Z,52.20
2018-04-10T09:00:57.725Z,51.40
2018-04-10T09:03:26.125Z,51.30
2018-04-10T09:05:54.268Z,51.20
2018-04-10T09:08:22.626Z,50.60
2018-04-10T09:10:51.563Z,51.80
2018-04-10T09:13:19.536Z,52.50
2018-04-10T09:15:47.543Z,51.70
2018-04-10T09:18:15.658Z,52.30
2018-04-10T09:20:44.514Z,50.20
2018-04-10T09:23:13.864Z,49.50
2018-04-10T09:25:41.876Z,49.50
2018-04-10T09:28:10.658Z,49.20
2018-04-10T09:30:39.661Z,47.30
2018-04-10T09:33:08.417Z,47.70
2018-04-10T09:35:37.261Z,47.60
2018-04-10T09:38:06.088Z,46.60
2018-04-10T09:40:34.114Z,46.60
2018-04-10T09:43:04.024Z,46.40
2018-04-10T09:45:31.544Z,46.30
2018-04-10T09:47:59.057Z,46.70
2018-04-10T09:50:27.344Z,47.00
2018-04-10T09:52:54.895Z,47.00
2018-04-10T09:55:23.352Z,46.70
2018-04-10T09:57:50.900Z,46.70
2018-04-10T10:00:24.208Z,46.40
2018-04-10T10:02:51.730Z,46.20
2018-04-10T10:05:19.266Z,46.30
2018-04-10T10:07:46.782Z,46.60
2018-04-10T10:10:14.640Z,46.00
2018-04-10T10:12:42.704Z,47.00
2018-04-10T10:15:10.246Z,46.90
2018-04-10T10:17:37.819Z,46.10
2018-04-10T10:20:05.340Z,46.10
2018-04-10T10:22:34.412Z,47.20
2018-04-10T10:25:01.974Z,47.10
2018-04-10T10:27:29.499Z,45.60
2018-04-10T10:29:57.007Z,45.00
2018-04-10T10:32:25.263Z,42.80
2018-04-10T10:34:52.759Z,42.20
2018-04-10T10:37:21.092Z,43.70
2018-04-10T10:39:48.617Z,43.70
2018-04-10T10:42:16.597Z,44.20
2018-04-10T10:44:44.097Z,44.70
2018-04-10T10:47:11.623Z,44.50
2018-04-10T10:49:39.185Z,44.60
2018-04-10T10:52:06.707Z,42.90
2018-04-10T10:54:35.085Z,40.30
2018-04-10T10:57:03.433Z,40.30
2018-04-10T10:59:30.958Z,41.40
2018-04-10T11:01:58.486Z,42.30
2018-04-10T11:04:26.871Z,43.10
2018-04-10T11:06:54.438Z,43.00
2018-04-10T11:09:21.940Z,43.20
2018-04-10T11:11:49.458Z,43.50
2018-04-10T11:14:16.993Z,42.80
2018-04-10T11:16:45.319Z,43.10
2018-04-10T11:19:12.915Z,43.10
2018-04-10T11:21:40.456Z,43.20
2018-04-10T11:24:08.644Z,42.60
2018-04-10T11:26:37.117Z,43.30
2018-04-10T11:29:05.764Z,43.40
2018-04-10T11:31:33.371Z,43.70
2018-04-10T11:34:01.159Z,44.30
2018-04-10T11:36:29.108Z,43.90
2018-04-10T11:38:56.684Z,43.70
2018-04-10T11:41:24.198Z,43.80
2018-04-10T11:43:51.865Z,43.40
2018-04-10T11:46:19.532Z,43.60
2018-04-10T11:48:47.051Z,44.30
2018-04-10T11:51:14.571Z,42.40
2018-04-10T11:53:42.170Z,42.60
2018-04-10T11:56:09.936Z,43.00
2018-04-10T11:58:37.514Z,43.60
2018-04-10T12:01:05.024Z,42.90
2018-04-10T12:03:32.625Z,42.90
2018-04-10T12:06:00.233Z,43.30
2018-04-10T12:08:27.779Z,42.90
2018-04-10T12:10:55.281Z,43.70
2018-04-10T12:13:22.779Z,44.10
2018-04-10T12:15:51.341Z,45.20
2018-04-10T12:18:19.097Z,45.10
2018-04-10T12:20:46.632Z,45.00
2018-04-10T12:23:15.038Z,45.60
2018-04-10T12:25:42.544Z,44.50
2018-04-10T12:28:10.455Z,44.30
2018-04-10T12:30:38.048Z,44.40
2018-04-10T12:33:06.738Z,45.70
2018-04-10T12:35:35.020Z,44.00
2018-04-10T12:38:03.302Z,44.50
2018-04-10T12:40:31.694Z,44.40
2018-04-10T12:42:59.722Z,44.30
2018-04-10T12:45:27.234Z,45.00
2018-04-10T12:47:54.742Z,44.50
2018-04-10T12:50:22.312Z,44.10
2018-04-10T12:52:49.981Z,44.10
2018-04-10T12:55:17.534Z,45.00
2018-04-10T12:57:45.807Z,44.30
2018-04-10T13:00:13.655Z,44.20
2018-04-10T13:02:41.268Z,44.50
2018-04-10T13:05:09.801Z,43.90
2018-04-10T13:07:38.777Z,43.90
2018-04-10T13:10:08.350Z,43.70
2018-04-10T13:12:36.550Z,44.20
2018-04-10T13:15:04.120Z,44.50
2018-04-10T13:17:33.220Z,44.80
2018-04-10T13:20:00.712Z,44.70
2018-04-10T13:22:28.481Z,45.10
2018-04-10T13:24:57.755Z,44.90
2018-04-10T13:27:26.388Z,43.90
2018-04-10T13:29:54.745Z,44.20
2018-04-10T13:32:22.253Z,44.10
2018-04-10T13:34:49.961Z,44.00
2018-04-10T13:37:17.573Z,43.00
2018-04-10T13:39:45.115Z,42.80
2018-04-10T13:42:13.407Z,43.20
2018-04-10T13:44:41.684Z,43.80
2018-04-10T13:47:10.004Z,43.70
2018-04-10T13:49:37.506Z,43.60
2018-04-10T13:52:05.019Z,43.90
2018-04-10T13:54:32.535Z,43.80
2018-04-10T13:57:00.811Z,44.60
2018-04-10T13:59:29.102Z,43.70
2018-04-10T14:01:57.380Z,43.80
2018-04-10T14:04:24.907Z,43.70
2018-04-10T14:06:52.438Z,43.60
2018-04-10T14:09:19.936Z,44.20
2018-04-10T14:11:47.446Z,44.20
2018-04-10T14:14:14.954Z,44.50
2018-04-10T14:16:42.462Z,43.30
2018-04-10T14:19:09.969Z,42.70
2018-04-10T14:21:37.486Z,42.50
2018-04-10T14:24:05.014Z,42.20
2018-04-10T14:26:33.279Z,42.60
2018-04-10T14:29:01.143Z,42.60
2018-04-10T14:31:30.321Z,43.00
2018-04-10T14:33:58.109Z,43.50
2018-04-10T14:36:25.851Z,44.50
2018-04-10T14:38:53.692Z,44.00
2018-04-10T14:41:21.995Z,43.00
2018-04-10T14:43:50.331Z,42.30
2018-04-10T14:46:18.182Z,41.60
2018-04-10T14:48:46.778Z,42.60
2018-04-10T14:51:14.600Z,42.60
2018-04-10T14:53:42.394Z,42.20
2018-04-10T14:56:11.749Z,42.80
2018-04-10T14:58:39.611Z,42.60
2018-04-10T15:01:08.299Z,42.30
2018-04-10T15:03:35.983Z,42.90
2018-04-10T15:06:03.745Z,43.30
2018-04-10T15:08:31.463Z,43.70
2018-04-10T15:10:59.393Z,43.60
2018-04-10T15:13:27.269Z,43.80
2018-04-10T15:15:55.286Z,43.10
2018-04-10T15:18:23.958Z,42.60
2018-04-10T15:20:53.331Z,42.80
2018-04-10T15:23:21.179Z,42.80
2018-04-10T15:25:48.992Z,43.20
2018-04-10T15:28:17.849Z,43.10
2018-04-10T15:30:45.343Z,43.10
2018-04-10T15:33:14.733Z,44.20
2018-04-10T15:35:44.229Z,45.00
2018-04-10T15:38:12.134Z,44.70
2018-04-10T15:40:39.821Z,45.30
2018-04-10T15:43:07.902Z,46.00
2018-04-10T15:45:37.681Z,47.10
2018-04-10T15:48:05.542Z,47.00
2018-04-10T15:50:34.372Z,47.20
2018-04-10T15:53:02.132Z,47.20
2018-04-10T15:55:30.032Z,47.50
2018-04-10T15:57:57.816Z,47.70
2018-04-10T16:00:26.490Z,47.50
2018-04-10T16:02:55.838Z,47.60
2018-04-10T16:05:24.234Z,47.70
2018-04-10T16:07:52.300Z,47.90
2018-04-10T16:10:21.306Z,47.80
2018-04-10T16:12:49.943Z,48.30
2018-04-10T16:15:18.709Z,48.60
2018-04-10T16:17:46.921Z,48.50
2018-04-10T16:20:16.254Z,49.00
2018-04-10T16:22:43.753Z,49.00
2018-04-10T16:25:11.797Z,49.10
2018-04-10T16:27:40.349Z,49.10
2018-04-10T16:30:09.101Z,49.30
2018-04-10T16:32:38.372Z,49.40
2018-04-10T16:35:06.871Z,49.80
2018-04-10T16:37:34.817Z,49.90
2018-04-10T16:40:03.542Z,50.00
2018-04-10T16:42:31.632Z,50.30
2018-04-10T16:45:00.678Z,50.70
2018-04-10T16:47:28.814Z,50.60
2018-04-10T16:49:56.647Z,51.00
2018-04-10T16:52:24.433Z,51.00
2018-04-10T16:54:53.268Z,51.30
2018-04-10T16:57:21.014Z,52.20
2018-04-10T16:59:50.631Z,51.60
2018-04-10T17:02:18.556Z,51.60
2018-04-10T17:04:46.286Z,51.70
2018-04-10T17:07:14.085Z,51.70
2018-04-10T17:09:41.860Z,51.80
2018-04-10T17:12:10.844Z,52.00
2018-04-10T17:14:40.926Z,52.10
2018-04-10T17:17:09.687Z,52.20
2018-04-10T17:19:38.168Z,52.20
2018-04-10T17:22:06.788Z,52.40
2018-04-10T17:24:35.897Z,52.30
2018-04-10T17:27:03.964Z,52.50
2018-04-10T17:29:32.256Z,52.60
2018-04-10T17:32:00.522Z,52.80
2018-04-10T17:34:29.089Z,52.80
2018-04-10T17:36:56.894Z,52.70
2018-04-10T17:39:24.981Z,53.00
2018-04-10T17:41:53.086Z,52.90
2018-04-10T17:44:21.388Z,53.10
2018-04-10T17:46:49.983Z,53.10
2018-04-10T17:49:18.259Z,53.20
2018-04-10T17:51:46.353Z,53.20
2018-04-10T17:54:14.917Z,53.30
2018-04-10T17:56:42.927Z,53.50
2018-04-10T17:59:11.492Z,53.70
2018-04-10T18:01:40.350Z,53.60
2018-04-10T18:04:09.114Z,53.70
2018-04-10T18:06:36.880Z,53.30
2018-04-10T18:09:05.472Z,53.40
2018-04-10T18:11:33.427Z,53.40
2018-04-10T18:14:02.970Z,53.60
2018-04-10T18:16:31.942Z,53.60
2018-04-10T18:19:00.163Z,53.70
2018-04-10T18:21:28.260Z,53.60
2018-04-10T18:23:57.589Z,53.70
2018-04-10T18:26:25.298Z,53.50
2018-04-10T18:28:54.106Z,53.60
2018-04-10T18:31:23.672Z,53.60
2018-04-10T18:33:52.849Z,53.80
2018-04-10T18:36:21.855Z,54.00
2018-04-10T18:38:49.994Z,53.90
2018-04-10T18:41:18.432Z,54.10
2018-04-10T18:43:46.175Z,54.30
2018-04-10T18:46:14.619Z,54.40
2018-04-10T18:48:48.479Z,54.40
2018-04-10T18:51:17.382Z,54.90
2018-04-10T18:56:33.560Z,55.10
2018-04-10T18:59:03.302Z,55.40
2018-04-10T19:01:32.379Z,55.40
2018-04-10T19:04:01.440Z,55.60
2018-04-10T19:06:29.621Z,56.00
2018-04-10T19:08:58.166Z,56.20
2018-04-10T19:11:27.235Z,56.30
2018-04-10T19:16:29.353Z,56.70
2018-04-10T19:18:57.740Z,57.00
2018-04-10T19:21:25.989Z,57.00
2018-04-10T19:23:54.447Z,57.10
2018-04-10T19:26:23.765Z,57.30
2018-04-10T19:28:55.084Z,57.30
2018-04-10T19:31:24.006Z,57.40
2018-04-10T19:33:53.058Z,57.80
2018-04-10T19:36:21.138Z,57.90
2018-04-10T19:41:55.312Z,58.20
2018-04-10T19:44:34.312Z,58.50
2018-04-10T19:52:38.716Z,58.90
2018-04-10T20:03:51.035Z,60.10
2018-04-10T20:06:38.304Z,60.90
2018-04-10T20:12:00.406Z,61.50
2018-04-10T20:14:31.726Z,61.80
2018-04-10T20:23:00.900Z,62.20
2018-04-10T20:25:53.157Z,62.30
2018-04-10T20:31:45.228Z,62.40
2018-04-10T20:37:26.377Z,63.80
2018-04-10T20:51:28.314Z,66.20
2018-04-10T21:03:01.115Z,69.30
2018-04-10T21:05:48.343Z,69.80
2018-04-10T21:14:26.991Z,73.80
2018-04-10T21:17:25.848Z,74.70
2018-04-10T23:59:55.026Z,99.90
